sensor_id;sensor_type;location;lat;lon;timestamp;P1;durP1;ratioP1;P2;durP2;ratioP2
55417;SDS011;41287;47.554;7.844;2022-11-03T00:00:24;1.73;;;1.02;;
55417;SDS011;41287;47.554;7.844;2022-11-03T00:02:50;2.00;;;0.90;;
55417;SDS011;41287;47.554;7.844;2022-11-03T00:05:15;3.80;;;1.08;;
55417;SDS011;41287;47.554;7.844;2022-11-03T00:08:02;2.53;;;1.23;;
55417;SDS011;41287;47.554;7.844;2022-11-03T00:10:28;2.30;;;1.00;;
55417;SDS011;41287;47.554;7.844;2022-11-03T00:12:54;2.72;;;0.90;;
55417;SDS011;41287;47.554;7.844;2022-11-03T00:15:19;3.20;;;1.10;;
55417;SDS011;41287;47.554;7.844;2022-11-03T00:17:45;2.30;;;1.30;;
55417;SDS011;41287;47.554;7.844;2022-11-03T00:20:10;2.10;;;1.48;;
55417;SDS011;41287;47.554;7.844;2022-11-03T00:22:36;2.38;;;1.33;;
55417;SDS011;41287;47.554;7.844;2022-11-03T00:25:01;1.90;;;1.20;;
55417;SDS011;41287;47.554;7.844;2022-11-03T00:27:26;1.88;;;1.05;;
55417;SDS011;41287;47.554;7.844;2022-11-03T00:29:52;1.67;;;0.80;;
55417;SDS011;41287;47.554;7.844;2022-11-03T00:32:17;1.98;;;1.10;;
55417;SDS011;41287;47.554;7.844;2022-11-03T00:34:43;2.88;;;1.20;;
55417;SDS011;41287;47.554;7.844;2022-11-03T00:37:08;2.22;;;0.93;;
55417;SDS011;41287;47.554;7.844;2022-11-03T00:39:33;1.75;;;1.02;;
55417;SDS011;41287;47.554;7.844;2022-11-03T00:41:59;1.23;;;0.90;;
55417;SDS011;41287;47.554;7.844;2022-11-03T00:44:24;2.53;;;1.10;;
55417;SDS011;41287;47.554;7.844;2022-11-03T00:46:51;1.50;;;1.02;;
55417;SDS011;41287;47.554;7.844;2022-11-03T00:49:16;2.40;;;0.95;;
55417;SDS011;41287;47.554;7.844;2022-11-03T00:51:45;1.65;;;0.98;;
55417;SDS011;41287;47.554;7.844;2022-11-03T00:54:10;2.97;;;1.00;;
55417;SDS011;41287;47.554;7.844;2022-11-03T00:56:37;3.33;;;1.00;;
55417;SDS011;41287;47.554;7.844;2022-11-03T00:59:04;1.80;;;1.00;;
55417;SDS011;41287;47.554;7.844;2022-11-03T01:01:35;2.13;;;0.90;;
55417;SDS011;41287;47.554;7.844;2022-11-03T01:04:04;1.42;;;0.77;;
55417;SDS011;41287;47.554;7.844;2022-11-03T01:06:52;2.65;;;1.23;;
55417;SDS011;41287;47.554;7.844;2022-11-03T01:14:39;2.10;;;0.88;;
55417;SDS011;41287;47.554;7.844;2022-11-03T01:17:07;1.52;;;0.90;;
55417;SDS011;41287;47.554;7.844;2022-11-03T01:19:34;1.83;;;0.93;;
55417;SDS011;41287;47.554;7.844;2022-11-03T01:22:00;2.53;;;1.20;;
55417;SDS011;41287;47.554;7.844;2022-11-03T01:24:25;1.52;;;0.75;;
55417;SDS011;41287;47.554;7.844;2022-11-03T01:26:52;2.58;;;1.10;;
55417;SDS011;41287;47.554;7.844;2022-11-03T01:29:18;1.98;;;1.20;;
55417;SDS011;41287;47.554;7.844;2022-11-03T01:31:43;2.13;;;0.90;;
55417;SDS011;41287;47.554;7.844;2022-11-03T01:34:15;1.83;;;0.95;;
55417;SDS011;41287;47.554;7.844;2022-11-03T01:36:42;2.15;;;0.95;;
55417;SDS011;41287;47.554;7.844;2022-11-03T01:39:15;1.88;;;0.90;;
55417;SDS011;41287;47.554;7.844;2022-11-03T01:41:43;3.28;;;1.00;;
55417;SDS011;41287;47.554;7.844;2022-11-03T01:49:08;1.38;;;0.98;;
55417;SDS011;41287;47.554;7.844;2022-11-03T01:51:38;1.02;;;0.85;;
55417;SDS011;41287;47.554;7.844;2022-11-03T01:54:08;1.70;;;0.90;;
55417;SDS011;41287;47.554;7.844;2022-11-03T01:56:37;2.33;;;0.75;;
55417;SDS011;41287;47.554;7.844;2022-11-03T01:59:07;2.65;;;1.20;;
55417;SDS011;41287;47.554;7.844;2022-11-03T02:01:33;2.42;;;1.00;;
55417;SDS011;41287;47.554;7.844;2022-11-03T02:04:01;2.50;;;1.20;;
55417;SDS011;41287;47.554;7.844;2022-11-03T02:06:31;1.38;;;0.88;;
55417;SDS011;41287;47.554;7.844;2022-11-03T02:09:01;1.45;;;0.80;;
55417;SDS011;41287;47.554;7.844;2022-11-03T02:11:29;1.58;;;0.70;;
55417;SDS011;41287;47.554;7.844;2022-11-03T02:14:14;2.08;;;1.00;;
55417;SDS011;41287;47.554;7.844;2022-11-03T02:16:42;1.23;;;0.70;;
55417;SDS011;41287;47.554;7.844;2022-11-03T02:21:57;2.97;;;1.05;;
55417;SDS011;41287;47.554;7.844;2022-11-03T02:24:36;1.73;;;0.90;;
55417;SDS011;41287;47.554;7.844;2022-11-03T02:27:13;1.45;;;1.00;;
55417;SDS011;41287;47.554;7.844;2022-11-03T02:29:45;1.48;;;0.90;;
55417;SDS011;41287;47.554;7.844;2022-11-03T02:32:14;1.50;;;1.10;;
55417;SDS011;41287;47.554;7.844;2022-11-03T02:34:59;2.67;;;1.10;;
55417;SDS011;41287;47.554;7.844;2022-11-03T02:37:29;1.48;;;0.65;;
55417;SDS011;41287;47.554;7.844;2022-11-03T02:40:05;1.55;;;0.90;;
55417;SDS011;41287;47.554;7.844;2022-11-03T02:42:37;1.45;;;0.60;;
55417;SDS011;41287;47.554;7.844;2022-11-03T02:45:07;1.50;;;1.00;;
55417;SDS011;41287;47.554;7.844;2022-11-03T02:47:36;2.17;;;1.17;;
55417;SDS011;41287;47.554;7.844;2022-11-03T02:50:03;1.70;;;0.93;;
55417;SDS011;41287;47.554;7.844;2022-11-03T02:57:59;1.73;;;0.82;;
55417;SDS011;41287;47.554;7.844;2022-11-03T03:00:39;0.88;;;0.70;;
55417;SDS011;41287;47.554;7.844;2022-11-03T03:03:13;1.85;;;0.77;;
55417;SDS011;41287;47.554;7.844;2022-11-03T03:05:45;1.85;;;0.90;;
55417;SDS011;41287;47.554;7.844;2022-11-03T03:08:14;1.02;;;0.80;;
55417;SDS011;41287;47.554;7.844;2022-11-03T03:10:41;2.17;;;1.00;;
55417;SDS011;41287;47.554;7.844;2022-11-03T03:13:09;1.00;;;0.75;;
55417;SDS011;41287;47.554;7.844;2022-11-03T03:18:26;1.83;;;0.90;;
55417;SDS011;41287;47.554;7.844;2022-11-03T03:20:56;1.00;;;0.75;;
55417;SDS011;41287;47.554;7.844;2022-11-03T03:23:33;1.15;;;0.80;;
55417;SDS011;41287;47.554;7.844;2022-11-03T03:26:02;1.20;;;0.80;;
55417;SDS011;41287;47.554;7.844;2022-11-03T03:28:32;1.42;;;0.95;;
55417;SDS011;41287;47.554;7.844;2022-11-03T03:31:04;2.15;;;1.00;;
55417;SDS011;41287;47.554;7.844;2022-11-03T03:33:32;2.05;;;0.90;;
55417;SDS011;41287;47.554;7.844;2022-11-03T03:36:00;2.05;;;0.80;;
55417;SDS011;41287;47.554;7.844;2022-11-03T03:38:31;2.10;;;0.93;;
55417;SDS011;41287;47.554;7.844;2022-11-03T03:41:02;2.13;;;0.85;;
55417;SDS011;41287;47.554;7.844;2022-11-03T03:43:29;1.88;;;1.00;;
55417;SDS011;41287;47.554;7.844;2022-11-03T03:45:58;0.82;;;0.77;;
55417;SDS011;41287;47.554;7.844;2022-11-03T03:48:28;3.30;;;1.23;;
55417;SDS011;41287;47.554;7.844;2022-11-03T03:50:54;2.78;;;0.90;;
55417;SDS011;41287;47.554;7.844;2022-11-03T03:53:20;0.95;;;0.70;;
55417;SDS011;41287;47.554;7.844;2022-11-03T03:55:47;1.80;;;0.90;;
55417;SDS011;41287;47.554;7.844;2022-11-03T03:58:15;1.63;;;1.00;;
55417;SDS011;41287;47.554;7.844;2022-11-03T04:00:41;0.90;;;0.70;;
55417;SDS011;41287;47.554;7.844;2022-11-03T04:03:12;1.50;;;0.82;;
55417;SDS011;41287;47.554;7.844;2022-11-03T04:05:42;1.15;;;0.68;;
55417;SDS011;41287;47.554;7.844;2022-11-03T04:08:08;0.90;;;0.70;;
55417;SDS011;41287;47.554;7.844;2022-11-03T04:10:34;1.10;;;0.73;;
55417;SDS011;41287;47.554;7.844;2022-11-03T04:13:00;1.52;;;0.80;;
55417;SDS011;41287;47.554;7.844;2022-11-03T04:15:43;1.00;;;0.80;;
55417;SDS011;41287;47.554;7.844;2022-11-03T04:18:27;1.27;;;0.80;;
55417;SDS011;41287;47.554;7.844;2022-11-03T04:21:12;1.05;;;0.70;;
55417;SDS011;41287;47.554;7.844;2022-11-03T04:23:58;2.22;;;1.27;;
55417;SDS011;41287;47.554;7.844;2022-11-03T04:26:26;1.98;;;1.02;;
55417;SDS011;41287;47.554;7.844;2022-11-03T04:28:52;1.92;;;0.88;;
55417;SDS011;41287;47.554;7.844;2022-11-03T04:31:18;1.05;;;0.80;;
55417;SDS011;41287;47.554;7.844;2022-11-03T04:33:44;1.33;;;0.90;;
55417;SDS011;41287;47.554;7.844;2022-11-03T04:38:47;1.27;;;0.85;;
55417;SDS011;41287;47.554;7.844;2022-11-03T04:41:14;1.52;;;0.70;;
55417;SDS011;41287;47.554;7.844;2022-11-03T04:43:41;1.17;;;0.70;;
55417;SDS011;41287;47.554;7.844;2022-11-03T04:46:09;1.25;;;0.93;;
55417;SDS011;41287;47.554;7.844;2022-11-03T04:48:36;1.85;;;0.80;;
55417;SDS011;41287;47.554;7.844;2022-11-03T04:51:14;11.82;;;1.40;;
55417;SDS011;41287;47.554;7.844;2022-11-03T04:53:44;6.63;;;1.13;;
55417;SDS011;41287;47.554;7.844;2022-11-03T04:56:14;2.38;;;0.90;;
55417;SDS011;41287;47.554;7.844;2022-11-03T04:58:46;5.63;;;1.23;;
55417;SDS011;41287;47.554;7.844;2022-11-03T05:01:12;5.07;;;0.85;;
55417;SDS011;41287;47.554;7.844;2022-11-03T05:03:40;3.47;;;1.10;;
55417;SDS011;41287;47.554;7.844;2022-11-03T05:06:11;3.35;;;0.70;;
55417;SDS011;41287;47.554;7.844;2022-11-03T05:08:40;2.17;;;0.93;;
55417;SDS011;41287;47.554;7.844;2022-11-03T05:11:19;2.25;;;0.95;;
55417;SDS011;41287;47.554;7.844;2022-11-03T05:13:51;2.45;;;1.00;;
55417;SDS011;41287;47.554;7.844;2022-11-03T05:16:17;3.72;;;1.02;;
55417;SDS011;41287;47.554;7.844;2022-11-03T05:18:43;2.60;;;1.13;;
55417;SDS011;41287;47.554;7.844;2022-11-03T05:21:13;4.18;;;1.08;;
55417;SDS011;41287;47.554;7.844;2022-11-03T05:23:47;1.95;;;1.02;;
55417;SDS011;41287;47.554;7.844;2022-11-03T05:26:21;3.92;;;1.42;;
55417;SDS011;41287;47.554;7.844;2022-11-03T05:28:49;6.80;;;2.25;;
55417;SDS011;41287;47.554;7.844;2022-11-03T05:31:20;2.72;;;1.42;;
55417;SDS011;41287;47.554;7.844;2022-11-03T05:33:48;4.35;;;1.45;;
55417;SDS011;41287;47.554;7.844;2022-11-03T05:36:17;3.95;;;1.50;;
55417;SDS011;41287;47.554;7.844;2022-11-03T05:38:55;5.07;;;1.52;;
55417;SDS011;41287;47.554;7.844;2022-11-03T05:41:25;2.45;;;1.30;;
55417;SDS011;41287;47.554;7.844;2022-11-03T05:44:04;3.20;;;1.00;;
55417;SDS011;41287;47.554;7.844;2022-11-03T05:47:00;5.53;;;1.20;;
55417;SDS011;41287;47.554;7.844;2022-11-03T05:49:32;4.22;;;1.27;;
55417;SDS011;41287;47.554;7.844;2022-11-03T05:51:58;3.28;;;1.20;;
55417;SDS011;41287;47.554;7.844;2022-11-03T05:54:25;2.72;;;1.25;;
55417;SDS011;41287;47.554;7.844;2022-11-03T05:56:52;2.97;;;0.95;;
55417;SDS011;41287;47.554;7.844;2022-11-03T05:59:19;3.30;;;1.20;;
55417;SDS011;41287;47.554;7.844;2022-11-03T06:01:48;1.98;;;1.10;;
55417;SDS011;41287;47.554;7.844;2022-11-03T06:04:34;2.92;;;1.10;;
55417;SDS011;41287;47.554;7.844;2022-11-03T06:07:03;2.22;;;1.20;;
55417;SDS011;41287;47.554;7.844;2022-11-03T06:09:36;3.65;;;1.23;;
55417;SDS011;41287;47.554;7.844;2022-11-03T06:12:03;2.45;;;0.98;;
55417;SDS011;41287;47.554;7.844;2022-11-03T06:14:30;1.88;;;0.90;;
55417;SDS011;41287;47.554;7.844;2022-11-03T06:17:00;4.18;;;0.90;;
55417;SDS011;41287;47.554;7.844;2022-11-03T06:19:36;3.65;;;1.25;;
55417;SDS011;41287;47.554;7.844;2022-11-03T06:22:21;3.17;;;1.13;;
55417;SDS011;41287;47.554;7.844;2022-11-03T06:24:50;3.83;;;1.73;;
55417;SDS011;41287;47.554;7.844;2022-11-03T06:27:19;2.10;;;1.38;;
55417;SDS011;41287;47.554;7.844;2022-11-03T06:30:30;5.32;;;2.28;;
55417;SDS011;41287;47.554;7.844;2022-11-03T06:32:39;5.13;;;2.10;;
55417;SDS011;41287;47.554;7.844;2022-11-03T06:35:04;6.95;;;2.55;;
55417;SDS011;41287;47.554;7.844;2022-11-03T06:37:35;4.40;;;2.28;;
55417;SDS011;41287;47.554;7.844;2022-11-03T06:40:24;5.13;;;2.40;;
55417;SDS011;41287;47.554;7.844;2022-11-03T06:42:48;4.88;;;2.53;;
55417;SDS011;41287;47.554;7.844;2022-11-03T06:45:20;5.93;;;2.50;;
55417;SDS011;41287;47.554;7.844;2022-11-03T06:47:48;4.65;;;2.40;;
55417;SDS011;41287;47.554;7.844;2022-11-03T06:50:19;3.97;;;2.25;;
55417;SDS011;41287;47.554;7.844;2022-11-03T06:52:48;3.78;;;2.17;;
55417;SDS011;41287;47.554;7.844;2022-11-03T06:57:52;5.43;;;2.67;;
55417;SDS011;41287;47.554;7.844;2022-11-03T07:00:23;5.85;;;2.08;;
55417;SDS011;41287;47.554;7.844;2022-11-03T07:05:26;4.95;;;2.10;;
55417;SDS011;41287;47.554;7.844;2022-11-03T07:07:56;4.95;;;2.00;;
55417;SDS011;41287;47.554;7.844;2022-11-03T07:10:25;5.28;;;2.22;;
55417;SDS011;41287;47.554;7.844;2022-11-03T07:12:52;5.07;;;1.80;;
55417;SDS011;41287;47.554;7.844;2022-11-03T07:15:52;4.78;;;1.90;;
55417;SDS011;41287;47.554;7.844;2022-11-03T07:18:27;5.47;;;1.98;;
55417;SDS011;41287;47.554;7.844;2022-11-03T07:20:55;4.70;;;1.83;;
55417;SDS011;41287;47.554;7.844;2022-11-03T07:23:27;3.75;;;1.80;;
55417;SDS011;41287;47.554;7.844;2022-11-03T07:25:58;3.45;;;1.75;;
55417;SDS011;41287;47.554;7.844;2022-11-03T07:28:27;5.22;;;1.95;;
55417;SDS011;41287;47.554;7.844;2022-11-03T07:30:57;4.43;;;1.80;;
55417;SDS011;41287;47.554;7.844;2022-11-03T07:33:24;3.25;;;1.52;;
55417;SDS011;41287;47.554;7.844;2022-11-03T07:35:51;7.20;;;1.80;;
55417;SDS011;41287;47.554;7.844;2022-11-03T07:38:21;5.25;;;2.17;;
55417;SDS011;41287;47.554;7.844;2022-11-03T07:40:49;5.07;;;2.15;;
55417;SDS011;41287;47.554;7.844;2022-11-03T07:43:51;6.25;;;2.10;;
55417;SDS011;41287;47.554;7.844;2022-11-03T07:46:13;4.57;;;1.80;;
55417;SDS011;41287;47.554;7.844;2022-11-03T07:48:47;4.03;;;1.77;;
55417;SDS011;41287;47.554;7.844;2022-11-03T07:51:19;5.60;;;1.88;;
55417;SDS011;41287;47.554;7.844;2022-11-03T07:53:46;3.63;;;1.80;;
55417;SDS011;41287;47.554;7.844;2022-11-03T07:58:44;2.38;;;1.55;;
55417;SDS011;41287;47.554;7.844;2022-11-03T08:01:21;3.78;;;1.67;;
55417;SDS011;41287;47.554;7.844;2022-11-03T08:03:53;5.68;;;2.03;;
55417;SDS011;41287;47.554;7.844;2022-11-03T08:06:22;3.05;;;1.63;;
55417;SDS011;41287;47.554;7.844;2022-11-03T08:08:48;3.50;;;1.60;;
55417;SDS011;41287;47.554;7.844;2022-11-03T08:11:13;4.75;;;1.65;;
55417;SDS011;41287;47.554;7.844;2022-11-03T08:13:43;4.30;;;1.67;;
55417;SDS011;41287;47.554;7.844;2022-11-03T08:16:08;3.58;;;1.60;;
55417;SDS011;41287;47.554;7.844;2022-11-03T08:18:34;2.17;;;1.38;;
55417;SDS011;41287;47.554;7.844;2022-11-03T08:21:00;4.68;;;1.60;;
55417;SDS011;41287;47.554;7.844;2022-11-03T08:23:26;3.38;;;1.48;;
55417;SDS011;41287;47.554;7.844;2022-11-03T08:25:51;4.18;;;1.55;;
55417;SDS011;41287;47.554;7.844;2022-11-03T08:28:17;3.63;;;1.70;;
55417;SDS011;41287;47.554;7.844;2022-11-03T08:30:42;3.67;;;1.92;;
55417;SDS011;41287;47.554;7.844;2022-11-03T08:33:07;2.80;;;1.50;;
55417;SDS011;41287;47.554;7.844;2022-11-03T08:35:35;3.42;;;1.38;;
55417;SDS011;41287;47.554;7.844;2022-11-03T08:38:00;3.88;;;1.55;;
55417;SDS011;41287;47.554;7.844;2022-11-03T08:40:25;3.40;;;1.40;;
55417;SDS011;41287;47.554;7.844;2022-11-03T08:42:51;3.28;;;1.25;;
55417;SDS011;41287;47.554;7.844;2022-11-03T08:45:16;5.82;;;1.50;;
55417;SDS011;41287;47.554;7.844;2022-11-03T08:47:42;2.13;;;1.50;;
55417;SDS011;41287;47.554;7.844;2022-11-03T08:50:07;2.92;;;1.35;;
55417;SDS011;41287;47.554;7.844;2022-11-03T08:52:33;3.03;;;1.65;;
55417;SDS011;41287;47.554;7.844;2022-11-03T08:54:58;2.83;;;1.50;;
55417;SDS011;41287;47.554;7.844;2022-11-03T08:57:24;2.20;;;1.35;;
55417;SDS011;41287;47.554;7.844;2022-11-03T08:59:49;2.90;;;1.70;;
55417;SDS011;41287;47.554;7.844;2022-11-03T09:02:16;4.53;;;1.75;;
55417;SDS011;41287;47.554;7.844;2022-11-03T09:04:42;3.05;;;1.48;;
55417;SDS011;41287;47.554;7.844;2022-11-03T09:07:07;2.25;;;1.55;;
55417;SDS011;41287;47.554;7.844;2022-11-03T09:09:32;2.88;;;1.60;;
55417;SDS011;41287;47.554;7.844;2022-11-03T09:11:58;2.78;;;1.40;;
55417;SDS011;41287;47.554;7.844;2022-11-03T09:14:23;2.00;;;1.35;;
55417;SDS011;41287;47.554;7.844;2022-11-03T09:16:48;4.10;;;1.77;;
55417;SDS011;41287;47.554;7.844;2022-11-03T09:19:14;2.05;;;1.35;;
55417;SDS011;41287;47.554;7.844;2022-11-03T09:21:39;2.67;;;1.50;;
55417;SDS011;41287;47.554;7.844;2022-11-03T09:24:04;3.00;;;1.08;;
55417;SDS011;41287;47.554;7.844;2022-11-03T09:26:42;1.83;;;1.42;;
55417;SDS011;41287;47.554;7.844;2022-11-03T09:29:08;3.58;;;1.38;;
55417;SDS011;41287;47.554;7.844;2022-11-03T09:31:35;2.10;;;1.30;;
55417;SDS011;41287;47.554;7.844;2022-11-03T09:34:01;5.40;;;1.77;;
55417;SDS011;41287;47.554;7.844;2022-11-03T09:36:26;7.38;;;2.20;;
55417;SDS011;41287;47.554;7.844;2022-11-03T09:38:51;4.43;;;1.63;;
55417;SDS011;41287;47.554;7.844;2022-11-03T09:41:17;2.92;;;1.33;;
55417;SDS011;41287;47.554;7.844;2022-11-03T09:43:45;2.88;;;1.30;;
55417;SDS011;41287;47.554;7.844;2022-11-03T09:46:12;2.13;;;1.50;;
55417;SDS011;41287;47.554;7.844;2022-11-03T09:48:38;2.08;;;1.48;;
55417;SDS011;41287;47.554;7.844;2022-11-03T09:51:04;3.47;;;1.55;;
55417;SDS011;41287;47.554;7.844;2022-11-03T09:53:34;3.15;;;1.42;;
55417;SDS011;41287;47.554;7.844;2022-11-03T09:55:59;4.75;;;1.40;;
55417;SDS011;41287;47.554;7.844;2022-11-03T09:58:32;3.50;;;1.70;;
55417;SDS011;41287;47.554;7.844;2022-11-03T10:00:59;3.88;;;1.52;;
55417;SDS011;41287;47.554;7.844;2022-11-03T10:03:30;3.83;;;1.80;;
55417;SDS011;41287;47.554;7.844;2022-11-03T10:05:56;3.35;;;1.70;;
55417;SDS011;41287;47.554;7.844;2022-11-03T10:08:27;3.67;;;1.70;;
55417;SDS011;41287;47.554;7.844;2022-11-03T10:10:54;3.70;;;1.70;;
55417;SDS011;41287;47.554;7.844;2022-11-03T10:13:28;2.15;;;1.38;;
55417;SDS011;41287;47.554;7.844;2022-11-03T10:15:58;2.40;;;1.20;;
55417;SDS011;41287;47.554;7.844;2022-11-03T10:18:25;3.28;;;1.80;;
55417;SDS011;41287;47.554;7.844;2022-11-03T10:20:52;3.35;;;1.30;;
55417;SDS011;41287;47.554;7.844;2022-11-03T10:23:18;3.10;;;1.33;;
55417;SDS011;41287;47.554;7.844;2022-11-03T10:25:44;2.28;;;1.40;;
55417;SDS011;41287;47.554;7.844;2022-11-03T10:33:27;3.58;;;1.38;;
55417;SDS011;41287;47.554;7.844;2022-11-03T10:36:19;2.08;;;1.15;;
55417;SDS011;41287;47.554;7.844;2022-11-03T10:38:50;3.92;;;1.23;;
55417;SDS011;41287;47.554;7.844;2022-11-03T10:41:26;3.33;;;1.40;;
55417;SDS011;41287;47.554;7.844;2022-11-03T10:46:24;2.22;;;1.30;;
55417;SDS011;41287;47.554;7.844;2022-11-03T10:49:04;2.75;;;1.20;;
55417;SDS011;41287;47.554;7.844;2022-11-03T10:51:38;2.08;;;1.27;;
55417;SDS011;41287;47.554;7.844;2022-11-03T10:54:07;4.00;;;1.58;;
55417;SDS011;41287;47.554;7.844;2022-11-03T10:56:36;4.43;;;1.50;;
55417;SDS011;41287;47.554;7.844;2022-11-03T10:59:02;3.58;;;1.10;;
55417;SDS011;41287;47.554;7.844;2022-11-03T11:01:28;1.88;;;1.10;;
55417;SDS011;41287;47.554;7.844;2022-11-03T11:03:53;2.50;;;1.38;;
55417;SDS011;41287;47.554;7.844;2022-11-03T11:08:45;3.92;;;1.52;;
55417;SDS011;41287;47.554;7.844;2022-11-03T11:11:13;3.65;;;1.30;;
55417;SDS011;41287;47.554;7.844;2022-11-03T11:13:40;2.95;;;1.30;;
55417;SDS011;41287;47.554;7.844;2022-11-03T11:16:06;4.88;;;1.20;;
55417;SDS011;41287;47.554;7.844;2022-11-03T11:19:26;3.15;;;1.50;;
55417;SDS011;41287;47.554;7.844;2022-11-03T11:27:44;3.13;;;1.85;;
55417;SDS011;41287;47.554;7.844;2022-11-03T11:35:14;6.85;;;2.85;;
55417;SDS011;41287;47.554;7.844;2022-11-03T11:37:40;6.57;;;3.38;;
55417;SDS011;41287;47.554;7.844;2022-11-03T11:40:11;8.80;;;3.97;;
55417;SDS011;41287;47.554;7.844;2022-11-03T11:48:31;11.13;;;5.10;;
55417;SDS011;41287;47.554;7.844;2022-11-03T11:50:57;11.70;;;6.00;;
55417;SDS011;41287;47.554;7.844;2022-11-03T11:53:23;12.25;;;6.15;;
55417;SDS011;41287;47.554;7.844;2022-11-03T11:55:57;14.63;;;6.82;;
55417;SDS011;41287;47.554;7.844;2022-11-03T11:58:37;16.17;;;7.78;;
55417;SDS011;41287;47.554;7.844;2022-11-03T12:01:20;18.42;;;9.70;;
55417;SDS011;41287;47.554;7.844;2022-11-03T12:04:04;18.55;;;9.75;;
55417;SDS011;41287;47.554;7.844;2022-11-03T12:06:35;22.08;;;10.18;;
55417;SDS011;41287;47.554;7.844;2022-11-03T12:09:05;20.67;;;11.25;;
55417;SDS011;41287;47.554;7.844;2022-11-03T12:14:20;20.98;;;12.10;;
55417;SDS011;41287;47.554;7.844;2022-11-03T12:16:50;21.15;;;11.82;;
55417;SDS011;41287;47.554;7.844;2022-11-03T12:22:01;22.05;;;13.82;;
55417;SDS011;41287;47.554;7.844;2022-11-03T12:26:59;22.70;;;13.38;;
55417;SDS011;41287;47.554;7.844;2022-11-03T12:29:25;25.15;;;14.60;;
55417;SDS011;41287;47.554;7.844;2022-11-03T12:31:50;24.10;;;15.15;;
55417;SDS011;41287;47.554;7.844;2022-11-03T12:34:16;22.00;;;14.25;;
55417;SDS011;41287;47.554;7.844;2022-11-03T12:36:42;24.30;;;15.60;;
55417;SDS011;41287;47.554;7.844;2022-11-03T12:39:08;25.45;;;17.15;;
55417;SDS011;41287;47.554;7.844;2022-11-03T12:41:34;25.08;;;16.65;;
55417;SDS011;41287;47.554;7.844;2022-11-03T12:44:01;24.80;;;15.18;;
55417;SDS011;41287;47.554;7.844;2022-11-03T12:46:27;26.33;;;17.05;;
55417;SDS011;41287;47.554;7.844;2022-11-03T12:48:52;28.58;;;18.25;;
55417;SDS011;41287;47.554;7.844;2022-11-03T12:51:27;25.52;;;16.83;;
55417;SDS011;41287;47.554;7.844;2022-11-03T12:53:52;27.65;;;17.20;;
55417;SDS011;41287;47.554;7.844;2022-11-03T12:56:17;27.42;;;17.67;;
55417;SDS011;41287;47.554;7.844;2022-11-03T12:58:43;27.08;;;16.63;;
55417;SDS011;41287;47.554;7.844;2022-11-03T13:01:09;26.45;;;18.02;;
55417;SDS011;41287;47.554;7.844;2022-11-03T13:03:34;26.25;;;17.85;;
55417;SDS011;41287;47.554;7.844;2022-11-03T13:06:01;30.92;;;19.27;;
55417;SDS011;41287;47.554;7.844;2022-11-03T13:08:31;28.85;;;19.63;;
55417;SDS011;41287;47.554;7.844;2022-11-03T13:10:56;29.27;;;19.80;;
55417;SDS011;41287;47.554;7.844;2022-11-03T13:13:22;30.48;;;19.00;;
55417;SDS011;41287;47.554;7.844;2022-11-03T13:15:47;31.55;;;19.85;;
55417;SDS011;41287;47.554;7.844;2022-11-03T13:18:12;26.55;;;18.50;;
55417;SDS011;41287;47.554;7.844;2022-11-03T13:20:38;27.60;;;18.02;;
55417;SDS011;41287;47.554;7.844;2022-11-03T13:23:04;29.20;;;19.42;;
55417;SDS011;41287;47.554;7.844;2022-11-03T13:25:30;33.60;;;19.40;;
55417;SDS011;41287;47.554;7.844;2022-11-03T13:27:55;29.73;;;19.60;;
55417;SDS011;41287;47.554;7.844;2022-11-03T13:30:21;31.67;;;19.45;;
55417;SDS011;41287;47.554;7.844;2022-11-03T13:32:48;28.98;;;19.08;;
55417;SDS011;41287;47.554;7.844;2022-11-03T13:35:14;28.85;;;19.00;;
55417;SDS011;41287;47.554;7.844;2022-11-03T13:37:39;27.33;;;19.10;;
55417;SDS011;41287;47.554;7.844;2022-11-03T13:40:05;28.50;;;19.33;;
55417;SDS011;41287;47.554;7.844;2022-11-03T13:42:31;26.02;;;18.98;;
55417;SDS011;41287;47.554;7.844;2022-11-03T13:44:56;28.45;;;20.27;;
55417;SDS011;41287;47.554;7.844;2022-11-03T13:47:25;30.10;;;20.75;;
55417;SDS011;41287;47.554;7.844;2022-11-03T13:49:51;28.92;;;20.38;;
55417;SDS011;41287;47.554;7.844;2022-11-03T13:52:17;28.90;;;20.73;;
55417;SDS011;41287;47.554;7.844;2022-11-03T13:54:43;30.08;;;21.17;;
55417;SDS011;41287;47.554;7.844;2022-11-03T13:57:08;30.13;;;20.77;;
55417;SDS011;41287;47.554;7.844;2022-11-03T13:59:33;29.55;;;20.45;;
55417;SDS011;41287;47.554;7.844;2022-11-03T14:01:59;28.98;;;20.02;;
55417;SDS011;41287;47.554;7.844;2022-11-03T14:04:25;28.45;;;20.42;;
55417;SDS011;41287;47.554;7.844;2022-11-03T14:06:50;29.77;;;20.33;;
55417;SDS011;41287;47.554;7.844;2022-11-03T14:09:16;29.05;;;19.75;;
55417;SDS011;41287;47.554;7.844;2022-11-03T14:11:41;29.00;;;19.73;;
55417;SDS011;41287;47.554;7.844;2022-11-03T14:14:25;29.45;;;20.83;;
55417;SDS011;41287;47.554;7.844;2022-11-03T14:16:52;29.42;;;20.45;;
55417;SDS011;41287;47.554;7.844;2022-11-03T14:19:18;28.75;;;19.60;;
55417;SDS011;41287;47.554;7.844;2022-11-03T14:21:43;27.73;;;19.27;;
55417;SDS011;41287;47.554;7.844;2022-11-03T14:24:09;28.60;;;20.25;;
55417;SDS011;41287;47.554;7.844;2022-11-03T14:26:34;29.55;;;20.25;;
55417;SDS011;41287;47.554;7.844;2022-11-03T14:29:00;29.40;;;20.13;;
55417;SDS011;41287;47.554;7.844;2022-11-03T14:31:28;31.80;;;21.88;;
55417;SDS011;41287;47.554;7.844;2022-11-03T14:33:53;28.17;;;19.70;;
55417;SDS011;41287;47.554;7.844;2022-11-03T14:36:19;29.25;;;19.88;;
55417;SDS011;41287;47.554;7.844;2022-11-03T14:38:44;27.98;;;20.58;;
55417;SDS011;41287;47.554;7.844;2022-11-03T14:41:09;29.38;;;21.27;;
55417;SDS011;41287;47.554;7.844;2022-11-03T14:43:56;26.00;;;18.23;;
55417;SDS011;41287;47.554;7.844;2022-11-03T14:46:22;28.20;;;20.60;;
55417;SDS011;41287;47.554;7.844;2022-11-03T14:48:47;27.45;;;19.40;;
55417;SDS011;41287;47.554;7.844;2022-11-03T14:51:13;26.52;;;18.27;;
55417;SDS011;41287;47.554;7.844;2022-11-03T14:53:38;31.10;;;22.63;;
55417;SDS011;41287;47.554;7.844;2022-11-03T14:56:03;28.35;;;19.95;;
55417;SDS011;41287;47.554;7.844;2022-11-03T14:58:29;27.52;;;18.70;;
55417;SDS011;41287;47.554;7.844;2022-11-03T15:00:56;26.88;;;19.23;;
55417;SDS011;41287;47.554;7.844;2022-11-03T15:03:22;27.38;;;20.33;;
55417;SDS011;41287;47.554;7.844;2022-11-03T15:05:47;27.52;;;20.27;;
55417;SDS011;41287;47.554;7.844;2022-11-03T15:08:14;28.00;;;20.58;;
55417;SDS011;41287;47.554;7.844;2022-11-03T15:10:41;29.10;;;20.98;;
55417;SDS011;41287;47.554;7.844;2022-11-03T15:13:07;25.45;;;18.67;;
55417;SDS011;41287;47.554;7.844;2022-11-03T15:15:33;27.40;;;18.63;;
55417;SDS011;41287;47.554;7.844;2022-11-03T15:18:00;26.27;;;18.73;;
55417;SDS011;41287;47.554;7.844;2022-11-03T15:20:26;28.30;;;19.52;;
55417;SDS011;41287;47.554;7.844;2022-11-03T15:22:51;32.20;;;20.83;;
55417;SDS011;41287;47.554;7.844;2022-11-03T15:25:16;27.23;;;19.42;;
55417;SDS011;41287;47.554;7.844;2022-11-03T15:27:45;26.15;;;19.00;;
55417;SDS011;41287;47.554;7.844;2022-11-03T15:30:11;27.98;;;19.80;;
55417;SDS011;41287;47.554;7.844;2022-11-03T15:32:36;26.65;;;19.00;;
55417;SDS011;41287;47.554;7.844;2022-11-03T15:35:08;27.25;;;19.70;;
55417;SDS011;41287;47.554;7.844;2022-11-03T15:37:33;26.65;;;17.63;;
55417;SDS011;41287;47.554;7.844;2022-11-03T15:39:58;25.92;;;19.05;;
55417;SDS011;41287;47.554;7.844;2022-11-03T15:42:26;23.25;;;16.38;;
55417;SDS011;41287;47.554;7.844;2022-11-03T15:44:51;26.00;;;18.83;;
55417;SDS011;41287;47.554;7.844;2022-11-03T15:47:17;27.73;;;18.80;;
55417;SDS011;41287;47.554;7.844;2022-11-03T15:49:42;26.30;;;18.83;;
55417;SDS011;41287;47.554;7.844;2022-11-03T15:52:09;25.95;;;17.80;;
55417;SDS011;41287;47.554;7.844;2022-11-03T15:54:34;27.55;;;20.13;;
55417;SDS011;41287;47.554;7.844;2022-11-03T15:57:00;25.15;;;18.00;;